Mocoreta, Argentina
Current Conditions -  °F | °C
As of 6:00 AM on Wednesday 28 Jan 2015 (Local Time) from SUSO Reporting Station
Clear Clear  
Wind Chill: 77°   Ceiling: Unl
Heat Index: 78°   Visibility: 6mi
Dew Point: 73°   Wind: 8mph
Humidity: 89%   Direction: 30°NNE
Pressure: 29.71"   Gusts: NA
Location:  30.63°S, 57.97°W
Report Text: SUSO 280900Z 03007KT CAVOK 25/23 Q1006
Loading
Personal Weather Stations






























Interactive Weather Map New forecast layout! Learn more

10-Day Weather Forecast

Advertisements
Track Severe Weather on mobile